createdAt,value
2023-03-17T00:00:08.454Z,9.203698
2023-03-17T00:01:08.682Z,9.203588
2023-03-17T00:02:08.483Z,9.203605
2023-03-17T00:03:08.558Z,9.203925
2023-03-17T00:04:08.401Z,9.203922
2023-03-17T00:05:08.381Z,9.204100
2023-03-17T00:06:08.588Z,9.204096
2023-03-17T00:07:08.416Z,9.203861
2023-03-17T00:08:08.383Z,9.203699
2023-03-17T00:09:08.555Z,9.204263
2023-03-17T00:10:08.439Z,9.203917
2023-03-17T00:11:08.347Z,9.204355
2023-03-17T00:12:08.340Z,9.204243
2023-03-17T00:13:08.338Z,9.204038
2023-03-17T00:14:08.347Z,9.203915
2023-03-17T00:15:08.357Z,9.203721
2023-03-17T00:16:08.387Z,9.203034
2023-03-17T00:17:09.377Z,9.203576
2023-03-17T00:18:08.314Z,9.203622
2023-03-17T00:19:08.349Z,9.203634
2023-03-17T00:20:08.335Z,9.203788
2023-03-17T00:21:08.313Z,9.203797
2023-03-17T00:22:08.325Z,9.203518
2023-03-17T00:23:08.334Z,9.203227
2023-03-17T00:24:08.276Z,9.203778
2023-03-17T00:25:08.243Z,9.203569
2023-03-17T00:26:08.259Z,9.203770
2023-03-17T00:27:08.326Z,9.203979
2023-03-17T00:28:08.411Z,9.204128
2023-03-17T00:29:08.224Z,9.203904
2023-03-17T00:30:08.241Z,9.204166
2023-03-17T00:31:08.283Z,9.204235
2023-03-17T00:32:08.215Z,9.203913
2023-03-17T00:33:08.289Z,9.203879
2023-03-17T00:34:08.273Z,9.204114
2023-03-17T00:35:08.183Z,9.203875
2023-03-17T00:36:08.255Z,9.203978
2023-03-17T00:37:08.222Z,9.203856
2023-03-17T00:38:08.175Z,9.203908
2023-03-17T00:39:08.184Z,9.203723
2023-03-17T00:40:08.180Z,9.203816
2023-03-17T00:41:08.172Z,9.203544
2023-03-17T00:42:08.159Z,9.203812
2023-03-17T00:43:08.134Z,9.204099
2023-03-17T00:44:08.149Z,9.203874
2023-03-17T00:45:08.143Z,9.203954
2023-03-17T00:46:08.278Z,9.203782
2023-03-17T00:47:08.187Z,9.203908
2023-03-17T00:48:08.153Z,9.204227
2023-03-17T00:49:08.141Z,9.204281
2023-03-17T00:50:08.100Z,9.203689
2023-03-17T00:51:08.122Z,9.203588
2023-03-17T00:52:08.061Z,9.203761
2023-03-17T00:53:08.103Z,9.203375
2023-03-17T00:54:08.104Z,9.203574
2023-03-17T00:55:08.067Z,9.203876
2023-03-17T00:56:08.075Z,9.203631
2023-03-17T00:57:08.065Z,9.203726
2023-03-17T00:58:08.036Z,9.203729
2023-03-17T00:59:08.064Z,9.203897
2023-03-17T01:00:08.019Z,9.203740
2023-03-17T01:01:08.067Z,9.203707
2023-03-17T01:02:08.072Z,9.203752
2023-03-17T01:03:08.048Z,9.203793
2023-03-17T01:04:08.022Z,9.203692
2023-03-17T01:05:08.021Z,9.203810
2023-03-17T01:06:08.032Z,9.203523
2023-03-17T01:07:07.993Z,9.203529
2023-03-17T01:08:07.991Z,9.203621
2023-03-17T01:09:08.012Z,9.203674
2023-03-17T01:10:07.971Z,9.203578
2023-03-17T01:11:07.965Z,9.203611
2023-03-17T01:12:07.958Z,9.203737
2023-03-17T01:13:07.952Z,9.203721
2023-03-17T01:14:07.992Z,9.203577
2023-03-17T01:15:07.927Z,9.203578
2023-03-17T01:16:07.993Z,9.203704
2023-03-17T01:17:08.931Z,9.203746
2023-03-17T01:18:07.942Z,9.203523
2023-03-17T01:19:07.957Z,9.203571
2023-03-17T01:20:07.931Z,9.203740
2023-03-17T01:21:07.937Z,9.203696
2023-03-17T01:22:07.923Z,9.203598
2023-03-17T01:23:07.876Z,9.203658
2023-03-17T01:24:07.898Z,9.203668
2023-03-17T01:25:07.896Z,9.203557
2023-03-17T01:26:07.870Z,9.203689
2023-03-17T01:27:07.878Z,9.203854
2023-03-17T01:28:07.861Z,9.203650
2023-03-17T01:29:07.878Z,9.203749
2023-03-17T01:30:07.837Z,9.203705
2023-03-17T01:31:07.871Z,9.203862
2023-03-17T01:32:07.828Z,9.203892
2023-03-17T01:33:07.823Z,9.203846
2023-03-17T01:34:07.816Z,9.203703
2023-03-17T01:35:07.813Z,9.203623
2023-03-17T01:36:07.880Z,9.203609
2023-03-17T01:37:07.835Z,9.203554
2023-03-17T01:38:07.798Z,9.203632
2023-03-17T01:39:07.950Z,9.203778
2023-03-17T01:40:07.812Z,9.203740
2023-03-17T01:41:07.807Z,9.203747
2023-03-17T01:42:07.751Z,9.203520
2023-03-17T01:43:07.760Z,9.203540
2023-03-17T01:44:07.769Z,9.203669
2023-03-17T01:45:07.753Z,9.203558
2023-03-17T01:46:07.845Z,9.203623
2023-03-17T01:47:07.751Z,9.203563
2023-03-17T01:48:07.759Z,9.203663
2023-03-17T01:49:07.733Z,9.203758
2023-03-17T01:50:07.753Z,9.203597
2023-03-17T01:51:07.761Z,9.203720
2023-03-17T01:52:07.697Z,9.203536
2023-03-17T01:53:07.752Z,9.203595
2023-03-17T01:54:07.695Z,9.203524
2023-03-17T01:55:07.672Z,9.203568
2023-03-17T01:56:07.692Z,9.203646
2023-03-17T01:57:07.729Z,9.203515
2023-03-17T01:58:07.654Z,9.203648
2023-03-17T01:59:07.679Z,9.203452
2023-03-17T02:00:07.652Z,9.203538
2023-03-17T02:01:07.712Z,9.203567
2023-03-17T02:02:07.708Z,9.203548
2023-03-17T02:03:07.707Z,9.203408
2023-03-17T02:04:07.645Z,9.203728
2023-03-17T02:05:07.615Z,9.203804
2023-03-17T02:06:07.607Z,9.203577
2023-03-17T02:07:07.643Z,9.203329
2023-03-17T02:08:07.646Z,9.203527
2023-03-17T02:09:07.616Z,9.203206
2023-03-17T02:10:07.569Z,9.203217
2023-03-17T02:11:07.608Z,9.203588
2023-03-17T02:12:07.590Z,9.203582
2023-03-17T02:13:07.603Z,9.203627
2023-03-17T02:14:07.595Z,9.203654
2023-03-17T02:15:07.540Z,9.203759
2023-03-17T02:16:07.568Z,9.203940
2023-03-17T02:17:07.606Z,9.203846
2023-03-17T02:18:07.564Z,9.203669
2023-03-17T02:19:07.525Z,9.203940
2023-03-17T02:20:07.530Z,9.203925
2023-03-17T02:21:07.575Z,9.203817
2023-03-17T02:22:07.504Z,9.203782
2023-03-17T02:23:07.518Z,9.203666
2023-03-17T02:24:07.499Z,9.203867
2023-03-17T02:25:07.481Z,9.203871
2023-03-17T02:26:07.487Z,9.203822
2023-03-17T02:27:07.501Z,9.203691
2023-03-17T02:28:07.502Z,9.203386
2023-03-17T02:29:07.456Z,9.203941
2023-03-17T02:30:07.486Z,9.203910
2023-03-17T02:31:07.466Z,9.203803
2023-03-17T02:32:07.448Z,9.203704
2023-03-17T02:33:07.461Z,9.203623
2023-03-17T02:34:07.436Z,9.203611
2023-03-17T02:35:07.504Z,9.203642
2023-03-17T02:36:07.476Z,9.203611
2023-03-17T02:37:07.420Z,9.203474
2023-03-17T02:38:07.414Z,9.203666
2023-03-17T02:39:07.407Z,9.203707
2023-03-17T02:40:07.424Z,9.203723
2023-03-17T02:41:07.422Z,9.203707
2023-03-17T02:42:07.397Z,9.203871
2023-03-17T02:43:07.369Z,9.203739
2023-03-17T02:44:07.339Z,9.203740
2023-03-17T02:45:07.410Z,9.203730
2023-03-17T02:46:07.422Z,9.203588
2023-03-17T02:47:07.356Z,9.203589
2023-03-17T02:48:07.356Z,9.203506
2023-03-17T02:49:07.349Z,9.203602
2023-03-17T02:50:07.316Z,9.203576
2023-03-17T02:51:07.366Z,9.203375
2023-03-17T02:52:07.409Z,9.203522
2023-03-17T02:53:07.296Z,9.203567
2023-03-17T02:54:07.296Z,9.203612
2023-03-17T02:55:07.288Z,9.203839
2023-03-17T02:56:07.338Z,9.203876
2023-03-17T02:57:07.289Z,9.203830
2023-03-17T02:58:07.271Z,9.203878
2023-03-17T02:59:07.277Z,9.203762
2023-03-17T03:00:07.371Z,9.203733
2023-03-17T03:01:07.366Z,9.203691
2023-03-17T03:02:07.277Z,9.203638
2023-03-17T03:03:07.259Z,9.203663
2023-03-17T03:04:07.272Z,9.203676
2023-03-17T03:05:07.249Z,9.203700
2023-03-17T03:06:07.227Z,9.203688
2023-03-17T03:07:07.260Z,9.203749
2023-03-17T03:08:07.224Z,9.203762
2023-03-17T03:09:07.213Z,9.203868
2023-03-17T03:10:07.222Z,9.203750
2023-03-17T03:11:07.203Z,9.203874
2023-03-17T03:12:07.189Z,9.203449
2023-03-17T03:13:07.226Z,9.203761
2023-03-17T03:14:07.169Z,9.203714
2023-03-17T03:15:07.168Z,9.203930
2023-03-17T03:16:07.215Z,9.203774
2023-03-17T03:17:07.161Z,9.203996
2023-03-17T03:18:07.186Z,9.204047
2023-03-17T03:19:07.151Z,9.203723
2023-03-17T03:20:07.137Z,9.203866
2023-03-17T03:21:07.132Z,9.203634
2023-03-17T03:22:07.126Z,9.203712
2023-03-17T03:23:07.131Z,9.203791
2023-03-17T03:24:07.170Z,9.203833
2023-03-17T03:25:07.255Z,9.203662
2023-03-17T03:26:07.099Z,9.203705
2023-03-17T03:27:07.092Z,9.203649
2023-03-17T03:28:07.122Z,9.203705
2023-03-17T03:29:07.076Z,9.204021
2023-03-17T03:30:07.101Z,9.203996
2023-03-17T03:31:07.098Z,9.204049
2023-03-17T03:32:07.082Z,9.203736
2023-03-17T03:33:07.116Z,9.203638
2023-03-17T03:34:07.119Z,9.203754
2023-03-17T03:35:07.063Z,9.203773
2023-03-17T03:36:07.075Z,9.203709
2023-03-17T03:37:07.041Z,9.204023
2023-03-17T03:38:07.051Z,9.203516
2023-03-17T03:39:07.066Z,9.203314
2023-03-17T03:40:07.021Z,9.203657
2023-03-17T03:41:07.022Z,9.203729
2023-03-17T03:42:07.041Z,9.203832
2023-03-17T03:43:16.358Z,9.203774
2023-03-17T03:44:09.042Z,9.203662
2023-03-17T03:45:07.026Z,9.203962
2023-03-17T03:46:07.025Z,9.203924
2023-03-17T03:47:06.968Z,9.203749
2023-03-17T03:48:06.963Z,9.204032
2023-03-17T03:49:06.969Z,9.204559
2023-03-17T03:50:07.012Z,9.204074
2023-03-17T03:51:07.007Z,9.203732
2023-03-17T03:52:06.951Z,9.203899
2023-03-17T03:53:06.933Z,9.204003
2023-03-17T03:54:06.939Z,9.203609
2023-03-17T03:55:06.959Z,9.203996
2023-03-17T03:56:06.956Z,9.203633
2023-03-17T03:57:06.937Z,9.203794
2023-03-17T03:58:06.957Z,9.204094
2023-03-17T03:59:06.902Z,9.203942
2023-03-17T04:00:06.911Z,9.204060
2023-03-17T04:01:06.907Z,9.204329
2023-03-17T04:02:09.390Z,9.203784
2023-03-17T04:03:07.897Z,9.203826
2023-03-17T04:04:06.907Z,9.204174
2023-03-17T04:05:06.972Z,9.204378
2023-03-17T04:06:06.881Z,9.204164
2023-03-17T04:07:06.974Z,9.204102
2023-03-17T04:08:06.864Z,9.204226
2023-03-17T04:09:06.838Z,9.204229
2023-03-17T04:10:06.830Z,9.204494
2023-03-17T04:11:06.832Z,9.204633
2023-03-17T04:12:06.898Z,9.204432
2023-03-17T04:13:06.803Z,9.204384
2023-03-17T04:14:06.788Z,9.204593
2023-03-17T04:15:06.771Z,9.204810
2023-03-17T04:16:06.818Z,9.204510
2023-03-17T04:17:06.838Z,9.203891
2023-03-17T04:18:06.778Z,9.203806
2023-03-17T04:19:06.886Z,9.203774
2023-03-17T04:20:07.761Z,9.203682
2023-03-17T04:21:06.867Z,9.203834
2023-03-17T04:22:06.744Z,9.204412
2023-03-17T04:23:06.771Z,9.204227
2023-03-17T04:24:06.751Z,9.203979
2023-03-17T04:25:06.721Z,9.204037
2023-03-17T04:26:06.725Z,9.203760
2023-03-17T04:27:06.694Z,9.204226
2023-03-17T04:28:06.734Z,9.204093
2023-03-17T04:29:06.751Z,9.203815
2023-03-17T04:30:06.715Z,9.203932
2023-03-17T04:31:06.684Z,9.203753
2023-03-17T04:32:06.681Z,9.204193
2023-03-17T04:33:06.771Z,9.204011
2023-03-17T04:34:06.654Z,9.203774
2023-03-17T04:35:06.668Z,9.203751
2023-03-17T04:36:06.707Z,9.204567
2023-03-17T04:37:06.642Z,9.204231
2023-03-17T04:38:06.676Z,9.203843
2023-03-17T04:39:06.657Z,9.203728
2023-03-17T04:40:06.658Z,9.203994
2023-03-17T04:41:06.633Z,9.204254
2023-03-17T04:42:06.613Z,9.203771
2023-03-17T04:43:06.616Z,9.204031
2023-03-17T04:44:06.630Z,9.204021
2023-03-17T04:45:06.614Z,9.203890
2023-03-17T04:46:06.667Z,9.203095
2023-03-17T04:47:06.584Z,9.202695
2023-03-17T04:48:06.575Z,9.202852
2023-03-17T04:49:06.575Z,9.203734
2023-03-17T04:50:06.592Z,9.204386
2023-03-17T04:51:06.566Z,9.204179
2023-03-17T04:52:06.550Z,9.204454
2023-03-17T04:53:06.562Z,9.204350
2023-03-17T04:54:06.569Z,9.204632
2023-03-17T04:55:06.524Z,9.204624
2023-03-17T04:56:06.543Z,9.204462
2023-03-17T04:57:06.528Z,9.204841
2023-03-17T04:58:06.527Z,9.204268
2023-03-17T04:59:06.517Z,9.204633
2023-03-17T05:00:06.519Z,9.204464
2023-03-17T05:01:06.521Z,9.204394
2023-03-17T05:02:06.554Z,9.204081
2023-03-17T05:03:16.797Z,9.204153
2023-03-17T05:04:09.109Z,9.203460
2023-03-17T05:05:06.475Z,9.203368
2023-03-17T05:06:06.532Z,9.203733
2023-03-17T05:07:06.449Z,9.203811
2023-03-17T05:08:06.457Z,9.203708
2023-03-17T05:09:06.465Z,9.204674
2023-03-17T05:10:06.478Z,9.205073
2023-03-17T05:11:06.449Z,9.204795
2023-03-17T05:12:06.418Z,9.204054
2023-03-17T05:13:06.393Z,9.203473
2023-03-17T05:14:06.450Z,9.203503
2023-03-17T05:15:06.409Z,9.203851
2023-03-17T05:16:06.561Z,9.203932
2023-03-17T05:17:06.396Z,9.203684
2023-03-17T05:18:06.380Z,9.203485
2023-03-17T05:19:06.408Z,9.203354
2023-03-17T05:20:06.441Z,9.202721
2023-03-17T05:21:06.411Z,9.203553
2023-03-17T05:22:06.346Z,9.203857
2023-03-17T05:23:06.372Z,9.203930
2023-03-17T05:24:06.324Z,9.203792
2023-03-17T05:25:07.361Z,9.203680
2023-03-17T05:26:06.339Z,9.203962
2023-03-17T05:27:06.339Z,9.203940
2023-03-17T05:28:06.333Z,9.203371
2023-03-17T05:29:06.295Z,9.203778
2023-03-17T05:30:06.309Z,9.203913
2023-03-17T05:31:08.262Z,9.203810
2023-03-17T05:32:06.390Z,9.203772
2023-03-17T05:33:06.388Z,9.203678
2023-03-17T05:34:06.297Z,9.203655
2023-03-17T05:35:06.261Z,9.203781
2023-03-17T05:36:06.273Z,9.203766
2023-03-17T05:37:06.251Z,9.203668
2023-03-17T05:38:06.298Z,9.203720
2023-03-17T05:39:06.265Z,9.203717
2023-03-17T05:40:06.287Z,9.203605
2023-03-17T05:41:06.260Z,9.203689
2023-03-17T05:42:06.242Z,9.203661
2023-03-17T05:43:06.285Z,9.203634
2023-03-17T05:44:06.237Z,9.203659
2023-03-17T05:45:06.214Z,9.203704
2023-03-17T05:46:06.246Z,9.203788
2023-03-17T05:47:06.191Z,9.203795
2023-03-17T05:48:06.187Z,9.203714
2023-03-17T05:49:06.230Z,9.203647
2023-03-17T05:50:06.196Z,9.203744
2023-03-17T05:51:06.173Z,9.203561
2023-03-17T05:52:06.165Z,9.203612
2023-03-17T05:53:06.245Z,9.203754
2023-03-17T05:54:06.188Z,9.203716
2023-03-17T05:55:06.165Z,9.203350
2023-03-17T05:56:06.129Z,9.203950
2023-03-17T05:57:06.149Z,9.203980
2023-03-17T05:58:06.123Z,9.203756
2023-03-17T05:59:06.224Z,9.203908
2023-03-17T06:00:06.165Z,9.203780
2023-03-17T06:01:06.150Z,9.203971
2023-03-17T06:02:06.137Z,9.203740
2023-03-17T06:03:06.143Z,9.203815
2023-03-17T06:04:06.101Z,9.203541
2023-03-17T06:05:06.125Z,9.204041
2023-03-17T06:06:06.111Z,9.204060
2023-03-17T06:07:06.068Z,9.204163
2023-03-17T06:08:06.089Z,9.204163
2023-03-17T06:09:06.059Z,9.204290
2023-03-17T06:10:06.085Z,9.204236
2023-03-17T06:11:06.046Z,9.203735
2023-03-17T06:12:06.030Z,9.203730
2023-03-17T06:13:06.031Z,9.203696
2023-03-17T06:14:06.029Z,9.203781
2023-03-17T06:15:06.073Z,9.203861
2023-03-17T06:16:06.030Z,9.203713
2023-03-17T06:17:06.003Z,9.203807
2023-03-17T06:18:06.012Z,9.203822
2023-03-17T06:19:05.993Z,9.203746
2023-03-17T06:20:05.983Z,9.203782
2023-03-17T06:21:05.990Z,9.203731
2023-03-17T06:22:05.969Z,9.203704
2023-03-17T06:23:06.245Z,9.203812
2023-03-17T06:24:05.986Z,9.203868
2023-03-17T06:25:05.973Z,9.203763
2023-03-17T06:26:05.961Z,9.203831
2023-03-17T06:27:05.964Z,9.203646
2023-03-17T06:28:06.119Z,9.203766
2023-03-17T06:29:05.911Z,9.203676
2023-03-17T06:30:05.947Z,9.203897
2023-03-17T06:31:07.337Z,9.203837
2023-03-17T06:32:19.768Z,9.203775
2023-03-17T06:33:08.191Z,9.203851
2023-03-17T06:34:05.969Z,9.203709
2023-03-17T06:35:05.982Z,9.203903
2023-03-17T06:36:05.956Z,9.203916
2023-03-17T06:37:05.925Z,9.203953
2023-03-17T06:38:05.885Z,9.203899
2023-03-17T06:39:05.861Z,9.203933
2023-03-17T06:40:05.929Z,9.203721
2023-03-17T06:41:05.854Z,9.203810
2023-03-17T06:42:06.881Z,9.203840
2023-03-17T06:43:06.839Z,9.203752
2023-03-17T06:44:05.860Z,9.203740
2023-03-17T06:45:05.831Z,9.203843
2023-03-17T06:46:05.902Z,9.203862
2023-03-17T06:47:05.831Z,9.203870
2023-03-17T06:48:05.806Z,9.203847
2023-03-17T06:49:05.827Z,9.203916
2023-03-17T06:50:05.844Z,9.203675
2023-03-17T06:51:05.814Z,9.203839
2023-03-17T06:52:05.795Z,9.203979
2023-03-17T06:53:05.786Z,9.203849
2023-03-17T06:54:05.779Z,9.203835
2023-03-17T06:55:05.824Z,9.203900
2023-03-17T06:56:05.750Z,9.203940
2023-03-17T06:57:05.780Z,9.203938
2023-03-17T06:58:05.740Z,9.203792
2023-03-17T06:59:05.745Z,9.203717
2023-03-17T07:00:05.771Z,9.203649
2023-03-17T07:01:05.732Z,9.203773
2023-03-17T07:02:05.801Z,9.203753
2023-03-17T07:03:05.757Z,9.203541
2023-03-17T07:04:05.717Z,9.203640
2023-03-17T07:05:05.755Z,9.203624
2023-03-17T07:06:05.709Z,9.203832
2023-03-17T07:07:05.713Z,9.203679
2023-03-17T07:08:05.710Z,9.203652
2023-03-17T07:09:05.694Z,9.203774
2023-03-17T07:10:05.722Z,9.203698
2023-03-17T07:11:05.688Z,9.203664
2023-03-17T07:12:05.669Z,9.203575
2023-03-17T07:13:05.659Z,9.203584
2023-03-17T07:14:05.638Z,9.203800
2023-03-17T07:15:05.740Z,9.203918
2023-03-17T07:16:05.737Z,9.203937
2023-03-17T07:17:05.669Z,9.203932
2023-03-17T07:18:05.629Z,9.203932
2023-03-17T07:19:05.641Z,9.203904
2023-03-17T07:20:05.654Z,9.203861
2023-03-17T07:21:05.677Z,9.203869
2023-03-17T07:22:05.723Z,9.204099
2023-03-17T07:23:05.635Z,9.204104
2023-03-17T07:24:05.615Z,9.203961
2023-03-17T07:25:05.641Z,9.204206
2023-03-17T07:26:05.611Z,9.204003
2023-03-17T07:27:05.617Z,9.203756
2023-03-17T07:28:05.632Z,9.203832
2023-03-17T07:29:05.598Z,9.203791
2023-03-17T07:30:05.567Z,9.203810
2023-03-17T07:31:05.656Z,9.204004
2023-03-17T07:32:05.614Z,9.204027
2023-03-17T07:33:05.646Z,9.203874
2023-03-17T07:34:05.585Z,9.203691
2023-03-17T07:35:05.567Z,9.203677
2023-03-17T07:36:05.611Z,9.203443
2023-03-17T07:37:05.583Z,9.203356
2023-03-17T07:38:05.608Z,9.203536
2023-03-17T07:39:05.549Z,9.203549
2023-03-17T07:40:05.511Z,9.203131
2023-03-17T07:41:05.541Z,9.203696
2023-03-17T07:42:05.540Z,9.203054
2023-03-17T07:43:05.583Z,9.202680
2023-03-17T07:44:05.569Z,9.203003
2023-03-17T07:45:05.584Z,9.204038
2023-03-17T07:46:06.496Z,9.202814
2023-03-17T07:47:06.536Z,9.202684
2023-03-17T07:48:05.517Z,9.203646
2023-03-17T07:49:05.529Z,9.203906
2023-03-17T07:50:05.525Z,9.203558
2023-03-17T07:51:05.486Z,9.203322
2023-03-17T07:52:05.478Z,9.202027
2023-03-17T07:53:05.469Z,9.203239
2023-03-17T07:54:05.471Z,9.203788
2023-03-17T07:55:05.579Z,9.203677
2023-03-17T07:56:05.476Z,9.203677
2023-03-17T07:57:05.516Z,9.203677
2023-03-17T07:58:05.540Z,9.203677
2023-03-17T07:59:05.434Z,9.203677
2023-03-17T08:00:05.509Z,9.203677
2023-03-17T08:01:05.457Z,9.203759
2023-03-17T08:02:05.587Z,9.203782
2023-03-17T08:03:10.373Z,9.203863
2023-03-17T08:04:07.539Z,9.203671
2023-03-17T08:05:05.485Z,9.203849
2023-03-17T08:06:05.438Z,9.204035
2023-03-17T08:07:05.414Z,9.203706
2023-03-17T08:08:05.430Z,9.203849
2023-03-17T08:09:05.399Z,9.203659
2023-03-17T08:10:05.402Z,9.203615
2023-03-17T08:11:05.427Z,9.203811
2023-03-17T08:12:05.442Z,9.203797
2023-03-17T08:13:05.433Z,9.203663
2023-03-17T08:14:05.439Z,9.203756
2023-03-17T08:15:05.372Z,9.203799
2023-03-17T08:16:05.418Z,9.203837
2023-03-17T08:17:05.456Z,9.203732
2023-03-17T08:18:05.356Z,9.203948
2023-03-17T08:19:05.356Z,9.203835
2023-03-17T08:20:05.376Z,9.203685
2023-03-17T08:21:05.389Z,9.203732
2023-03-17T08:22:05.423Z,9.203867
2023-03-17T08:23:05.362Z,9.203847
2023-03-17T08:24:05.492Z,9.203698
2023-03-17T08:25:05.331Z,9.203543
2023-03-17T08:26:05.325Z,9.203637
2023-03-17T08:27:05.384Z,9.203741
2023-03-17T08:28:05.320Z,9.203675
2023-03-17T08:29:05.324Z,9.203822
2023-03-17T08:30:05.357Z,9.203540
2023-03-17T08:31:05.411Z,9.203700
2023-03-17T08:32:05.388Z,9.203821
2023-03-17T08:33:05.374Z,9.203677
2023-03-17T08:34:05.301Z,9.203690
2023-03-17T08:35:05.323Z,9.203676
2023-03-17T08:36:05.313Z,9.203741
2023-03-17T08:37:05.285Z,9.203896
2023-03-17T08:38:05.272Z,9.203898
2023-03-17T08:39:05.354Z,9.203892
2023-03-17T08:40:05.256Z,9.203766
2023-03-17T08:41:05.255Z,9.203924
2023-03-17T08:42:05.254Z,9.203944
2023-03-17T08:43:05.571Z,9.203957
2023-03-17T08:44:05.268Z,9.203909
2023-03-17T08:45:05.280Z,9.203815
2023-03-17T08:46:05.273Z,9.203842
2023-03-17T08:47:05.236Z,9.203972
2023-03-17T08:48:05.244Z,9.204118
2023-03-17T08:49:05.256Z,9.203879
2023-03-17T08:50:05.228Z,9.204051
2023-03-17T08:51:05.206Z,9.204103
2023-03-17T08:52:05.238Z,9.203959
2023-03-17T08:53:05.202Z,9.203956
2023-03-17T08:54:05.214Z,9.203858
2023-03-17T08:55:05.188Z,9.204083
2023-03-17T08:56:05.231Z,9.204053
2023-03-17T08:57:05.226Z,9.204007
2023-03-17T08:58:05.183Z,9.203942
2023-03-17T08:59:05.177Z,9.203878
2023-03-17T09:00:05.180Z,9.203961
2023-03-17T09:01:05.290Z,9.204141
2023-03-17T09:02:05.181Z,9.204081
2023-03-17T09:03:05.265Z,9.203964
2023-03-17T09:04:05.155Z,9.203832
2023-03-17T09:05:05.183Z,9.203903
2023-03-17T09:06:05.143Z,9.203973
2023-03-17T09:07:06.595Z,9.204213
2023-03-17T09:08:05.145Z,9.204099
2023-03-17T09:09:05.161Z,9.203968
2023-03-17T09:10:05.160Z,9.204046
2023-03-17T09:11:05.113Z,9.204094
2023-03-17T09:12:05.129Z,9.203967
2023-03-17T09:13:05.190Z,9.203836
2023-03-17T09:14:05.148Z,9.204036
2023-03-17T09:15:05.118Z,9.203991
2023-03-17T09:16:05.137Z,9.203974
2023-03-17T09:17:05.975Z,9.203757
2023-03-17T09:18:06.110Z,9.203839
2023-03-17T09:19:05.078Z,9.203753
2023-03-17T09:20:05.090Z,9.203680
2023-03-17T09:21:05.084Z,9.203847
2023-03-17T09:22:05.101Z,9.203719
2023-03-17T09:23:05.072Z,9.203939
2023-03-17T09:24:05.065Z,9.203944
2023-03-17T09:25:05.051Z,9.203974
2023-03-17T09:26:05.015Z,9.203843
2023-03-17T09:27:05.049Z,9.203872
2023-03-17T09:28:05.070Z,9.203437
2023-03-17T09:29:05.060Z,9.203603
2023-03-17T09:30:05.006Z,9.203715
2023-03-17T09:31:05.125Z,9.203906
2023-03-17T09:32:05.008Z,9.203797
2023-03-17T09:33:05.091Z,9.203683
2023-03-17T09:34:05.036Z,9.203578
2023-03-17T09:35:05.040Z,9.203429
2023-03-17T09:36:05.045Z,9.203655
2023-03-17T09:37:05.001Z,9.203702
2023-03-17T09:38:05.002Z,9.203794
2023-03-17T09:39:05.004Z,9.203595
2023-03-17T09:40:04.934Z,9.203745
2023-03-17T09:41:04.987Z,9.203783
2023-03-17T09:42:04.939Z,9.203772
2023-03-17T09:43:04.956Z,9.203628
2023-03-17T09:44:05.943Z,9.203621
2023-03-17T09:45:04.921Z,9.203570
2023-03-17T09:46:04.972Z,9.203670
2023-03-17T09:47:04.920Z,9.203520
2023-03-17T09:48:04.952Z,9.203625
2023-03-17T09:49:04.904Z,9.203627
2023-03-17T09:50:05.020Z,9.203526
2023-03-17T09:51:04.969Z,9.203807
2023-03-17T09:52:04.859Z,9.203797
2023-03-17T09:53:04.926Z,9.203706
2023-03-17T09:54:04.886Z,9.203744
2023-03-17T09:55:04.917Z,9.203749
2023-03-17T09:56:04.866Z,9.203714
2023-03-17T09:57:04.827Z,9.203655
2023-03-17T09:58:04.827Z,9.203667
2023-03-17T09:59:04.825Z,9.203717
2023-03-17T10:00:04.834Z,9.203664
2023-03-17T10:01:04.837Z,9.203658
2023-03-17T10:02:05.943Z,9.203588
2023-03-17T10:03:04.805Z,9.203746
2023-03-17T10:04:04.784Z,9.203671
2023-03-17T10:05:04.880Z,9.203647
2023-03-17T10:06:04.827Z,9.203779
2023-03-17T10:07:04.789Z,9.203680
2023-03-17T10:08:05.447Z,9.203670
2023-03-17T10:09:04.753Z,9.203797
2023-03-17T10:10:04.749Z,9.203718
2023-03-17T10:11:04.795Z,9.203676
2023-03-17T10:12:04.749Z,9.203698
2023-03-17T10:13:04.801Z,9.203672
2023-03-17T10:14:04.737Z,9.203667
2023-03-17T10:15:04.760Z,9.203788
2023-03-17T10:16:04.781Z,9.203800
2023-03-17T10:17:04.730Z,9.203759
2023-03-17T10:18:04.716Z,9.203723
2023-03-17T10:19:04.743Z,9.203716
2023-03-17T10:20:04.711Z,9.203757
2023-03-17T10:21:04.718Z,9.203748
2023-03-17T10:22:04.697Z,9.203715
2023-03-17T10:23:04.677Z,9.203768
2023-03-17T10:24:04.665Z,9.203824
2023-03-17T10:25:04.671Z,9.203720
2023-03-17T10:26:04.682Z,9.203681
2023-03-17T10:27:04.680Z,9.203595
2023-03-17T10:28:07.023Z,9.203643
2023-03-17T10:29:04.624Z,9.203535
2023-03-17T10:30:04.638Z,9.203581
2023-03-17T10:31:04.736Z,9.203652
2023-03-17T10:32:04.751Z,9.203723
2023-03-17T10:33:04.633Z,9.203738
2023-03-17T10:34:04.606Z,9.203621
2023-03-17T10:35:04.623Z,9.203673
2023-03-17T10:36:04.651Z,9.203727
2023-03-17T10:37:04.613Z,9.203694
2023-03-17T10:38:14.115Z,9.203668
2023-03-17T10:39:06.562Z,9.203582
2023-03-17T10:40:04.588Z,9.203710
2023-03-17T10:41:04.594Z,9.203672
2023-03-17T10:42:04.555Z,9.203607
2023-03-17T10:43:04.563Z,9.203959
2023-03-17T10:44:04.532Z,9.203675
2023-03-17T10:45:05.525Z,9.203660
2023-03-17T10:46:04.541Z,9.203737
2023-03-17T10:47:04.634Z,9.203674
2023-03-17T10:48:04.574Z,9.203477
2023-03-17T10:49:04.522Z,9.203717
2023-03-17T10:50:04.530Z,9.203785
2023-03-17T10:51:04.672Z,9.203713
2023-03-17T10:52:04.523Z,9.203809
2023-03-17T10:53:04.560Z,9.203566
2023-03-17T10:54:04.485Z,9.203806
2023-03-17T10:55:04.497Z,9.203690
2023-03-17T10:56:04.470Z,9.203758
2023-03-17T10:57:04.504Z,9.203747
2023-03-17T10:58:04.492Z,9.203898
2023-03-17T10:59:04.454Z,9.203723
2023-03-17T11:00:04.420Z,9.203816
2023-03-17T11:01:04.454Z,9.203847
2023-03-17T11:02:04.418Z,9.203733
2023-03-17T11:03:04.495Z,9.203896
2023-03-17T11:04:04.472Z,9.203674
2023-03-17T11:05:04.408Z,9.203730
2023-03-17T11:06:04.361Z,9.203739
2023-03-17T11:07:04.390Z,9.203883
2023-03-17T11:08:04.396Z,9.203915
2023-03-17T11:09:04.341Z,9.203860
2023-03-17T11:10:04.349Z,9.203900
2023-03-17T11:11:04.353Z,9.203599
2023-03-17T11:12:04.324Z,9.203720
2023-03-17T11:13:04.424Z,9.203773
2023-03-17T11:14:04.373Z,9.203795
2023-03-17T11:15:04.331Z,9.203735
2023-03-17T11:16:04.351Z,9.203743
2023-03-17T11:17:04.338Z,9.203720
2023-03-17T11:18:04.314Z,9.203729
2023-03-17T11:19:04.306Z,9.203663
2023-03-17T11:20:04.277Z,9.203650
2023-03-17T11:21:04.259Z,9.203772
2023-03-17T11:22:04.246Z,9.203719
2023-03-17T11:23:04.255Z,9.203802
2023-03-17T11:24:04.259Z,9.203710
2023-03-17T11:25:04.243Z,9.203763
2023-03-17T11:26:04.235Z,9.203606
2023-03-17T11:27:04.231Z,9.203735
2023-03-17T11:28:04.218Z,9.203719
2023-03-17T11:29:04.231Z,9.203740
2023-03-17T11:30:04.258Z,9.203723
2023-03-17T11:31:04.167Z,9.203752
2023-03-17T11:32:04.375Z,9.203730
2023-03-17T11:33:04.172Z,9.203702
2023-03-17T11:34:04.171Z,9.203634
2023-03-17T11:35:04.190Z,9.203706
2023-03-17T11:36:04.275Z,9.203709
2023-03-17T11:37:04.124Z,9.203623
2023-03-17T11:38:04.131Z,9.203612
2023-03-17T11:39:04.125Z,9.203676
2023-03-17T11:40:04.197Z,9.203694
2023-03-17T11:41:04.111Z,9.203730
2023-03-17T11:42:04.087Z,9.203650
2023-03-17T11:43:04.144Z,9.203667
2023-03-17T11:44:04.078Z,9.203604